Tim S. Dool — VGPY — position and weather

sailwx.info

Track history (hours):
 
Tides and Currents Weather Stations Pressure Air Temp Water Temp Dewpoint Dewpoint Depression Visibility Wind Speed Wind Dir Waves Ship Positions

Tim S. Dool

Last reported at 2015-Jul-31 17:29 UTC. Time now 2015-Jul-31 21:23 UTC.
Position N 43°29' W 079°37'.

Length 223 m; draft 7.3 m.

Type: Cargo ship. MMSI: 316001696.

Date/timePositionNaut miles runAvg speedWind from/ knotsBaromVisibWave heightAir tempDewpointWater temp
2015-Jul-31 17:29N 43°29' W 079°37'0 0.0
2015-Jul-31 16:28N 43°29' W 079°37'0 0.0
2015-Jul-31 11:33N 43°29' W 079°37'0 0.0
2015-Jul-31 10:33N 43°29' W 079°37'0 0.0
2015-Jul-31 09:33N 43°29' W 079°37'0 0.0
2015-Jul-31 08:33N 43°29' W 079°37'0 0.0
2015-Jul-31 07:33N 43°29' W 079°37'0 0.0
2015-Jul-31 06:31N 43°29' W 079°37'0 0.0
2015-Jul-31 05:32N 43°29' W 079°37'0 0.0
2015-Jul-31 04:33N 43°29' W 079°37'0 0.0
2015-Jul-31 03:34N 43°29' W 079°37'0 0.0
2015-Jul-31 02:34N 43°29' W 079°37'1 0.8
2015-Jul-31 01:34N 43°28' W 079°36'5 4.8
2015-Jul-31 00:34N 43°25' W 079°32'4 3.5
2015-Jul-30 23:34N 43°22' W 079°29'2 2.5
2015-Jul-30 22:34N 43°21' W 079°32'2 2.5
2015-Jul-30 21:34N 43°20' W 079°35'4 3.7
2015-Jul-30 20:32N 43°19' W 079°40'6 0.3
2015-Jul-30 03:29N 43°17' W 079°48'0 0.0
2015-Jul-30 02:33N 43°17' W 079°48'12 2.6
2015-Jul-29 22:10N 43°21' W 079°33'812.7
2015-Jul-29 21:34N 43°23' W 079°23'1312.8
2015-Jul-29 20:34N 43°26' W 079°06'1313.0
2015-Jul-29 19:33N 43°30' W 078°48'6816.1
2015-Jul-29 15:21N 43°46' W 077°18'0 0.0
2015-Jul-29 14:33N 43°46' W 077°18'3029.5
2015-Jul-29 13:34N 43°57' W 076°39'0 0.0
2015-Jul-29 12:33N 43°57' W 076°39'3 3.4
2015-Jul-29 11:32N 43°58' W 076°35'1111.6
2015-Jul-29 10:33N 44°06' W 076°24'1210.5
2015-Jul-29 09:27N 44°13' W 076°11'104 6.9
2015-Jul-28 18:30N 45°14' W 074°13'8 8.5
2015-Jul-28 17:33N 45°14' W 074°01'6 6.2
2015-Jul-28 16:34N 45°18' W 073°56'1 0.8
2015-Jul-28 15:34N 45°19' W 073°55'3 2.7
2015-Jul-28 14:33N 45°21' W 073°52'9 8.5
2015-Jul-28 13:32N 45°25' W 073°41'5 4.9
2015-Jul-28 12:33N 45°24' W 073°35'2 1.3
2015-Jul-28 11:24N 45°24' W 073°33'4 4.1
2015-Jul-28 10:26N 45°28' W 073°30'73 6.7
2015-Jul-27 23:33N 46°24' W 072°24'9 8.7
2015-Jul-27 22:33N 46°29' W 072°14'11 9.1
2015-Jul-27 21:19N 46°36' W 072°00'  
2015-Jul-25 12:00N 47°42' W 069°36'12311.6 040 / 61014.010.8 14.0
2015-Jul-25 01:23N 46°34' W 072°06'1113.5
2015-Jul-25 00:33N 46°26' W 072°18'1313.3
2015-Jul-24 23:33N 46°18' W 072°34'1212.1
2015-Jul-24 22:33N 46°13' W 072°49'  
2015-Jul-22 12:32N 45°27' W 073°30'4 3.6
2015-Jul-22 11:27N 45°24' W 073°34'3 2.4
2015-Jul-22 10:21N 45°24' W 073°38'5 5.9
2015-Jul-22 09:34N 45°24' W 073°44'6 6.3
2015-Jul-22 08:33N 45°21' W 073°52'3 3.2
2015-Jul-22 07:34N 45°19' W 073°55'1 1.1
2015-Jul-22 06:33N 45°18' W 073°56'9 6.8
2015-Jul-22 05:16N 45°14' W 074°07'  
Track history (hours):
 
Tides and Currents Weather Stations Pressure Air Temp Water Temp Dewpoint Dewpoint Depression Visibility Wind Speed Wind Dir Waves Ship Positions

Tim S. Dool

Last reported at 2015-Jul-31 17:29 UTC. Time now 2015-Jul-31 21:23 UTC.
Position N 43°29' W 079°37'.

Length 223 m; draft 7.3 m.

Type: Cargo ship. MMSI: 316001696.

Date/timePositionNaut miles runAvg speedWind from/ knotsBaromVisibWave heightAir tempDewpointWater temp
2015-Jul-31 17:29N 43°29' W 079°37'0 0.0
2015-Jul-31 16:28N 43°29' W 079°37'0 0.0
2015-Jul-31 11:33N 43°29' W 079°37'0 0.0
2015-Jul-31 10:33N 43°29' W 079°37'0 0.0
2015-Jul-31 09:33N 43°29' W 079°37'0 0.0
2015-Jul-31 08:33N 43°29' W 079°37'0 0.0
2015-Jul-31 07:33N 43°29' W 079°37'0 0.0
2015-Jul-31 06:31N 43°29' W 079°37'0 0.0
2015-Jul-31 05:32N 43°29' W 079°37'0 0.0
2015-Jul-31 04:33N 43°29' W 079°37'0 0.0
2015-Jul-31 03:34N 43°29' W 079°37'0 0.0
2015-Jul-31 02:34N 43°29' W 079°37'1 0.8
2015-Jul-31 01:34N 43°28' W 079°36'5 4.8
2015-Jul-31 00:34N 43°25' W 079°32'4 3.5
2015-Jul-30 23:34N 43°22' W 079°29'2 2.5
2015-Jul-30 22:34N 43°21' W 079°32'2 2.5
2015-Jul-30 21:34N 43°20' W 079°35'4 3.7
2015-Jul-30 20:32N 43°19' W 079°40'6 0.3
2015-Jul-30 03:29N 43°17' W 079°48'0 0.0
2015-Jul-30 02:33N 43°17' W 079°48'12 2.6
2015-Jul-29 22:10N 43°21' W 079°33'812.7
2015-Jul-29 21:34N 43°23' W 079°23'1312.8
2015-Jul-29 20:34N 43°26' W 079°06'1313.0
2015-Jul-29 19:33N 43°30' W 078°48'6816.1
2015-Jul-29 15:21N 43°46' W 077°18'0 0.0
2015-Jul-29 14:33N 43°46' W 077°18'3029.5
2015-Jul-29 13:34N 43°57' W 076°39'0 0.0
2015-Jul-29 12:33N 43°57' W 076°39'3 3.4
2015-Jul-29 11:32N 43°58' W 076°35'1111.6
2015-Jul-29 10:33N 44°06' W 076°24'1210.5
2015-Jul-29 09:27N 44°13' W 076°11'104 6.9
2015-Jul-28 18:30N 45°14' W 074°13'8 8.5
2015-Jul-28 17:33N 45°14' W 074°01'6 6.2
2015-Jul-28 16:34N 45°18' W 073°56'1 0.8
2015-Jul-28 15:34N 45°19' W 073°55'3 2.7
2015-Jul-28 14:33N 45°21' W 073°52'9 8.5
2015-Jul-28 13:32N 45°25' W 073°41'5 4.9
2015-Jul-28 12:33N 45°24' W 073°35'2 1.3
2015-Jul-28 11:24N 45°24' W 073°33'4 4.1
2015-Jul-28 10:26N 45°28' W 073°30'73 6.7
2015-Jul-27 23:33N 46°24' W 072°24'9 8.7
2015-Jul-27 22:33N 46°29' W 072°14'11 9.1
2015-Jul-27 21:19N 46°36' W 072°00'  
2015-Jul-25 12:00N 47°42' W 069°36'12311.6 040 / 61014.010.8 14.0
2015-Jul-25 01:23N 46°34' W 072°06'1113.5
2015-Jul-25 00:33N 46°26' W 072°18'1313.3
2015-Jul-24 23:33N 46°18' W 072°34'1212.1
2015-Jul-24 22:33N 46°13' W 072°49'  
2015-Jul-22 12:32N 45°27' W 073°30'4 3.6
2015-Jul-22 11:27N 45°24' W 073°34'3 2.4
2015-Jul-22 10:21N 45°24' W 073°38'5 5.9
2015-Jul-22 09:34N 45°24' W 073°44'6 6.3
2015-Jul-22 08:33N 45°21' W 073°52'3 3.2
2015-Jul-22 07:34N 45°19' W 073°55'1 1.1
2015-Jul-22 06:33N 45°18' W 073°56'9 6.8
2015-Jul-22 05:16N 45°14' W 074°07'  

Dump ship's entire track history